sensor_id;sensor_type;location;lat;lon;timestamp;pressure;altitude;pressure_sealevel;temperature;humidity
45369;BME280;51342;55.250;37.668;2022-07-06T00:04:15;99508.38;;;17.20;73.33
45369;BME280;51342;55.250;37.668;2022-07-06T00:06:47;99506.53;;;17.18;73.40
45369;BME280;51342;55.250;37.668;2022-07-06T00:09:19;99509.97;;;17.15;73.34
45369;BME280;51342;55.250;37.668;2022-07-06T00:11:50;99516.00;;;17.13;73.05
45369;BME280;51342;55.250;37.668;2022-07-06T00:14:23;99509.94;;;17.14;73.51
45369;BME280;51342;55.250;37.668;2022-07-06T00:16:55;99515.00;;;17.08;73.52
45369;BME280;51342;55.250;37.668;2022-07-06T00:19:26;99516.69;;;17.07;73.75
45369;BME280;51342;55.250;37.668;2022-07-06T00:21:58;99516.81;;;17.10;73.37
45369;BME280;51342;55.250;37.668;2022-07-06T00:24:29;99510.59;;;17.07;73.46
45369;BME280;51342;55.250;37.668;2022-07-06T00:27:01;99510.53;;;17.04;73.31
45369;BME280;51342;55.250;37.668;2022-07-06T00:29:32;99509.50;;;16.99;73.31
45369;BME280;51342;55.250;37.668;2022-07-06T00:32:03;99504.00;;;16.89;73.33
45369;BME280;51342;55.250;37.668;2022-07-06T00:34:35;99505.66;;;16.86;73.26
45369;BME280;51342;55.250;37.668;2022-07-06T00:37:06;99515.22;;;16.85;73.38
45369;BME280;51342;55.250;37.668;2022-07-06T00:39:38;99502.94;;;16.83;73.53
45369;BME280;51342;55.250;37.668;2022-07-06T00:42:09;99496.78;;;16.81;73.69
45369;BME280;51342;55.250;37.668;2022-07-06T00:44:41;99503.75;;;16.80;73.49
45369;BME280;51342;55.250;37.668;2022-07-06T00:47:12;99505.47;;;16.80;73.64
45369;BME280;51342;55.250;37.668;2022-07-06T00:49:43;99493.06;;;16.73;73.44
45369;BME280;51342;55.250;37.668;2022-07-06T00:52:33;99514.06;;;16.76;73.45
45369;BME280;51342;55.250;37.668;2022-07-06T00:55:05;99514.03;;;16.74;73.54
45369;BME280;51342;55.250;37.668;2022-07-06T00:57:37;99507.00;;;16.73;73.47
45369;BME280;51342;55.250;37.668;2022-07-06T01:00:10;99502.63;;;16.72;73.50
45369;BME280;51342;55.250;37.668;2022-07-06T01:02:42;99500.69;;;16.66;73.72
45369;BME280;51342;55.250;37.668;2022-07-06T01:05:15;99505.88;;;16.65;73.86
45369;BME280;51342;55.250;37.668;2022-07-06T01:07:49;99501.38;;;16.61;74.30
45369;BME280;51342;55.250;37.668;2022-07-06T01:10:22;99507.59;;;16.64;73.90
45369;BME280;51342;55.250;37.668;2022-07-06T01:12:54;99512.84;;;16.66;74.41
45369;BME280;51342;55.250;37.668;2022-07-06T01:15:27;99519.84;;;16.67;74.01
45369;BME280;51342;55.250;37.668;2022-07-06T01:17:59;99517.34;;;16.70;74.13
45369;BME280;51342;55.250;37.668;2022-07-06T01:20:35;99516.53;;;16.71;74.10
45369;BME280;51342;55.250;37.668;2022-07-06T01:23:06;99515.56;;;16.69;74.37
45369;BME280;51342;55.250;37.668;2022-07-06T01:25:38;99512.97;;;16.69;74.45
45369;BME280;51342;55.250;37.668;2022-07-06T01:28:09;99506.72;;;16.64;74.45
45369;BME280;51342;55.250;37.668;2022-07-06T01:30:40;99504.09;;;16.64;74.97
45369;BME280;51342;55.250;37.668;2022-07-06T01:33:12;99505.97;;;16.68;74.89
45369;BME280;51342;55.250;37.668;2022-07-06T01:35:43;99507.75;;;16.69;74.77
45369;BME280;51342;55.250;37.668;2022-07-06T01:38:14;99504.19;;;16.67;75.02
45369;BME280;51342;55.250;37.668;2022-07-06T01:40:47;99500.75;;;16.68;75.00
45369;BME280;51342;55.250;37.668;2022-07-06T01:43:18;99503.38;;;16.68;75.11
45369;BME280;51342;55.250;37.668;2022-07-06T01:45:49;99511.19;;;16.68;75.15
45369;BME280;51342;55.250;37.668;2022-07-06T01:48:21;99516.53;;;16.71;75.30
45369;BME280;51342;55.250;37.668;2022-07-06T01:50:52;99511.31;;;16.71;75.44
45369;BME280;51342;55.250;37.668;2022-07-06T01:53:24;99518.44;;;16.77;75.34
45369;BME280;51342;55.250;37.668;2022-07-06T01:55:55;99514.13;;;16.79;75.15
45369;BME280;51342;55.250;37.668;2022-07-06T01:58:27;99514.97;;;16.78;75.50
45369;BME280;51342;55.250;37.668;2022-07-06T02:00:58;99518.59;;;16.81;75.72
45369;BME280;51342;55.250;37.668;2022-07-06T02:03:30;99511.63;;;16.82;75.76
45369;BME280;51342;55.250;37.668;2022-07-06T02:06:05;99522.25;;;16.88;75.82
45369;BME280;51342;55.250;37.668;2022-07-06T02:08:39;99523.31;;;16.94;76.14
45369;BME280;51342;55.250;37.668;2022-07-06T02:11:11;99510.94;;;16.89;75.96
45369;BME280;51342;55.250;37.668;2022-07-06T02:13:44;99524.31;;;16.98;76.05
45369;BME280;51342;55.250;37.668;2022-07-06T02:16:16;99517.41;;;17.02;75.95
45369;BME280;51342;55.250;37.668;2022-07-06T02:18:47;99520.94;;;17.02;75.84
45369;BME280;51342;55.250;37.668;2022-07-06T02:21:19;99534.38;;;17.16;76.39
45369;BME280;51342;55.250;37.668;2022-07-06T02:23:51;99537.47;;;17.33;76.13
45369;BME280;51342;55.250;37.668;2022-07-06T02:26:23;99531.66;;;17.43;75.70
45369;BME280;51342;55.250;37.668;2022-07-06T02:28:55;99534.63;;;17.57;75.42
45369;BME280;51342;55.250;37.668;2022-07-06T02:31:27;99538.50;;;17.71;75.13
45369;BME280;51342;55.250;37.668;2022-07-06T02:33:58;99536.44;;;17.92;74.68
45369;BME280;51342;55.250;37.668;2022-07-06T02:36:30;99530.09;;;18.16;74.06
45369;BME280;51342;55.250;37.668;2022-07-06T02:39:01;99527.28;;;18.46;73.43
45369;BME280;51342;55.250;37.668;2022-07-06T02:41:34;99526.97;;;18.70;73.12
45369;BME280;51342;55.250;37.668;2022-07-06T02:44:06;99541.59;;;18.99;72.40
45369;BME280;51342;55.250;37.668;2022-07-06T02:46:37;99535.69;;;19.10;71.25
45369;BME280;51342;55.250;37.668;2022-07-06T02:49:11;99524.28;;;19.06;71.46
45369;BME280;51342;55.250;37.668;2022-07-06T02:51:42;99531.69;;;19.28;71.44
45369;BME280;51342;55.250;37.668;2022-07-06T02:54:14;99536.50;;;19.51;71.22
45369;BME280;51342;55.250;37.668;2022-07-06T02:56:46;99536.13;;;19.75;70.91
45369;BME280;51342;55.250;37.668;2022-07-06T02:59:22;99531.38;;;20.05;70.25
45369;BME280;51342;55.250;37.668;2022-07-06T03:01:54;99525.69;;;20.32;69.54
45369;BME280;51342;55.250;37.668;2022-07-06T03:04:26;99524.31;;;20.57;68.79
45369;BME280;51342;55.250;37.668;2022-07-06T03:06:58;99524.56;;;20.76;68.86
45369;BME280;51342;55.250;37.668;2022-07-06T03:09:29;99529.22;;;20.95;68.18
45369;BME280;51342;55.250;37.668;2022-07-06T03:12:01;99526.81;;;21.12;67.76
45369;BME280;51342;55.250;37.668;2022-07-06T03:14:35;99526.03;;;21.21;66.95
45369;BME280;51342;55.250;37.668;2022-07-06T03:17:07;99535.78;;;21.28;66.82
45369;BME280;51342;55.250;37.668;2022-07-06T03:19:39;99523.66;;;21.42;67.24
45369;BME280;51342;55.250;37.668;2022-07-06T03:22:10;99524.72;;;21.61;67.10
45369;BME280;51342;55.250;37.668;2022-07-06T03:24:42;99522.31;;;21.82;67.23
45369;BME280;51342;55.250;37.668;2022-07-06T03:27:14;99521.63;;;22.05;66.06
45369;BME280;51342;55.250;37.668;2022-07-06T03:29:46;99515.66;;;22.22;66.45
45369;BME280;51342;55.250;37.668;2022-07-06T03:32:18;99512.22;;;22.31;66.30
45369;BME280;51342;55.250;37.668;2022-07-06T03:34:50;99504.38;;;22.45;66.86
45369;BME280;51342;55.250;37.668;2022-07-06T03:37:21;99516.81;;;22.69;66.52
45369;BME280;51342;55.250;37.668;2022-07-06T03:39:53;99523.94;;;22.85;66.21
45369;BME280;51342;55.250;37.668;2022-07-06T03:42:25;99519.66;;;22.95;65.37
45369;BME280;51342;55.250;37.668;2022-07-06T03:44:56;99522.31;;;23.02;65.41
45369;BME280;51342;55.250;37.668;2022-07-06T03:47:28;99514.41;;;23.06;65.32
45369;BME280;51342;55.250;37.668;2022-07-06T03:49:59;99526.75;;;23.13;65.45
45369;BME280;51342;55.250;37.668;2022-07-06T03:52:31;99517.13;;;23.22;65.83
45369;BME280;51342;55.250;37.668;2022-07-06T03:55:03;99517.16;;;23.32;65.50
45369;BME280;51342;55.250;37.668;2022-07-06T03:57:35;99518.94;;;23.43;65.21
45369;BME280;51342;55.250;37.668;2022-07-06T04:00:09;99519.00;;;23.60;65.22
45369;BME280;51342;55.250;37.668;2022-07-06T04:02:52;99516.38;;;23.71;64.61
45369;BME280;51342;55.250;37.668;2022-07-06T04:05:28;99526.09;;;23.79;64.31
45369;BME280;51342;55.250;37.668;2022-07-06T04:08:00;99535.78;;;23.85;64.70
45369;BME280;51342;55.250;37.668;2022-07-06T04:10:41;99523.47;;;23.95;64.73
45369;BME280;51342;55.250;37.668;2022-07-06T04:13:12;99529.63;;;24.09;64.17
45369;BME280;51342;55.250;37.668;2022-07-06T04:15:44;99524.34;;;24.17;63.59
45369;BME280;51342;55.250;37.668;2022-07-06T04:18:15;99520.81;;;24.28;62.82
45369;BME280;51342;55.250;37.668;2022-07-06T04:20:52;99522.59;;;24.42;62.97
45369;BME280;51342;55.250;37.668;2022-07-06T04:23:24;99519.94;;;24.48;61.73
45369;BME280;51342;55.250;37.668;2022-07-06T04:25:57;99517.28;;;24.45;61.87
45369;BME280;51342;55.250;37.668;2022-07-06T04:28:30;99512.88;;;24.38;62.60
45369;BME280;51342;55.250;37.668;2022-07-06T04:31:01;99510.22;;;24.50;62.94
45369;BME280;51342;55.250;37.668;2022-07-06T04:33:34;99503.13;;;24.61;62.74
45369;BME280;51342;55.250;37.668;2022-07-06T04:36:05;99503.13;;;24.69;62.13
45369;BME280;51342;55.250;37.668;2022-07-06T04:38:43;99504.00;;;24.74;61.96
45369;BME280;51342;55.250;37.668;2022-07-06T04:41:16;99507.47;;;24.83;62.09
45369;BME280;51342;55.250;37.668;2022-07-06T04:43:48;99497.75;;;24.93;61.28
45369;BME280;51342;55.250;37.668;2022-07-06T04:46:22;99498.59;;;25.03;60.36
45369;BME280;51342;55.250;37.668;2022-07-06T04:48:56;99488.00;;;25.03;60.18
45369;BME280;51342;55.250;37.668;2022-07-06T04:51:32;99496.78;;;25.17;60.29
45369;BME280;51342;55.250;37.668;2022-07-06T04:54:04;99500.28;;;25.24;61.35
45369;BME280;51342;55.250;37.668;2022-07-06T04:56:37;99489.63;;;25.34;61.12
45369;BME280;51342;55.250;37.668;2022-07-06T04:59:10;99497.50;;;25.50;61.06
45369;BME280;51342;55.250;37.668;2022-07-06T05:01:41;99489.44;;;25.63;60.02
45369;BME280;51342;55.250;37.668;2022-07-06T05:04:12;99493.81;;;25.69;59.82
45369;BME280;51342;55.250;37.668;2022-07-06T05:06:45;99493.78;;;25.81;59.08
45369;BME280;51342;55.250;37.668;2022-07-06T05:09:16;99487.47;;;25.96;59.51
45369;BME280;51342;55.250;37.668;2022-07-06T05:11:50;99484.66;;;26.13;59.72
45369;BME280;51342;55.250;37.668;2022-07-06T05:14:22;99487.19;;;26.25;59.75
45369;BME280;51342;55.250;37.668;2022-07-06T05:16:54;99483.56;;;26.38;57.80
45369;BME280;51342;55.250;37.668;2022-07-06T05:19:27;99487.06;;;26.45;59.26
45369;BME280;51342;55.250;37.668;2022-07-06T05:22:00;99478.97;;;26.54;57.30
45369;BME280;51342;55.250;37.668;2022-07-06T05:24:31;99483.34;;;26.58;54.73
45369;BME280;51342;55.250;37.668;2022-07-06T05:27:06;99485.03;;;26.67;54.10
45369;BME280;51342;55.250;37.668;2022-07-06T05:29:38;99485.72;;;26.83;55.47
45369;BME280;51342;55.250;37.668;2022-07-06T05:32:09;99479.50;;;26.85;55.44
45369;BME280;51342;55.250;37.668;2022-07-06T05:34:40;99476.78;;;26.91;57.30
45369;BME280;51342;55.250;37.668;2022-07-06T05:37:12;99480.25;;;26.97;57.55
45369;BME280;51342;55.250;37.668;2022-07-06T05:39:44;99481.94;;;27.04;55.03
45369;BME280;51342;55.250;37.668;2022-07-06T05:42:18;99479.28;;;27.07;55.29
45369;BME280;51342;55.250;37.668;2022-07-06T05:44:55;99481.03;;;27.08;55.85
45369;BME280;51342;55.250;37.668;2022-07-06T05:47:27;99484.59;;;27.07;56.49
45369;BME280;51342;55.250;37.668;2022-07-06T05:50:17;99480.09;;;27.10;56.87
45369;BME280;51342;55.250;37.668;2022-07-06T05:53:03;99482.63;;;27.21;58.01
45369;BME280;51342;55.250;37.668;2022-07-06T05:55:35;99487.78;;;27.32;55.46
45369;BME280;51342;55.250;37.668;2022-07-06T05:58:08;99486.75;;;27.42;55.71
45369;BME280;51342;55.250;37.668;2022-07-06T06:00:41;99478.78;;;27.42;54.54
45369;BME280;51342;55.250;37.668;2022-07-06T06:03:18;99484.13;;;27.40;53.38
45369;BME280;51342;55.250;37.668;2022-07-06T06:05:51;99481.47;;;27.40;52.72
45369;BME280;51342;55.250;37.668;2022-07-06T06:08:25;99482.38;;;27.38;54.95
45369;BME280;51342;55.250;37.668;2022-07-06T06:10:56;99484.22;;;27.33;55.24
45369;BME280;51342;55.250;37.668;2022-07-06T06:13:30;99481.56;;;27.34;55.50
45369;BME280;51342;55.250;37.668;2022-07-06T06:16:01;99479.63;;;27.44;55.66
45369;BME280;51342;55.250;37.668;2022-07-06T06:18:34;99466.22;;;27.53;54.41
45369;BME280;51342;55.250;37.668;2022-07-06T06:21:05;99471.38;;;27.64;54.68
45369;BME280;51342;55.250;37.668;2022-07-06T06:23:37;99465.09;;;27.71;55.07
45369;BME280;51342;55.250;37.668;2022-07-06T06:26:08;99464.06;;;27.80;55.38
45369;BME280;51342;55.250;37.668;2022-07-06T06:28:39;99459.44;;;27.92;58.22
45369;BME280;51342;55.250;37.668;2022-07-06T06:31:12;99462.00;;;27.97;54.67
45369;BME280;51342;55.250;37.668;2022-07-06T06:33:43;99456.69;;;27.97;53.69
45369;BME280;51342;55.250;37.668;2022-07-06T06:36:15;99459.44;;;27.92;54.15
45369;BME280;51342;55.250;37.668;2022-07-06T06:38:46;99453.31;;;27.87;55.94
45369;BME280;51342;55.250;37.668;2022-07-06T06:41:18;99453.22;;;27.90;54.83
45369;BME280;51342;55.250;37.668;2022-07-06T06:43:51;99444.41;;;27.88;53.86
45369;BME280;51342;55.250;37.668;2022-07-06T06:46:28;99454.91;;;27.97;53.74
45369;BME280;51342;55.250;37.668;2022-07-06T06:49:00;99443.19;;;28.08;54.79
45369;BME280;51342;55.250;37.668;2022-07-06T06:51:31;99444.78;;;28.18;54.33
45369;BME280;51342;55.250;37.668;2022-07-06T06:54:03;99451.81;;;28.22;52.71
45369;BME280;51342;55.250;37.668;2022-07-06T06:56:34;99449.09;;;28.23;53.34
45369;BME280;51342;55.250;37.668;2022-07-06T06:59:06;99453.44;;;28.29;53.06
45369;BME280;51342;55.250;37.668;2022-07-06T07:01:37;99452.44;;;28.38;52.35
45369;BME280;51342;55.250;37.668;2022-07-06T07:04:08;99457.59;;;28.45;51.54
45369;BME280;51342;55.250;37.668;2022-07-06T07:06:40;99455.94;;;28.40;50.53
45369;BME280;51342;55.250;37.668;2022-07-06T07:09:11;99459.63;;;28.33;51.61
45369;BME280;51342;55.250;37.668;2022-07-06T07:11:42;99462.25;;;28.34;52.76
45369;BME280;51342;55.250;37.668;2022-07-06T07:14:14;99456.94;;;28.34;52.77
45369;BME280;51342;55.250;37.668;2022-07-06T07:16:45;99449.88;;;28.30;53.16
45369;BME280;51342;55.250;37.668;2022-07-06T07:19:16;99467.41;;;28.43;52.12
45369;BME280;51342;55.250;37.668;2022-07-06T07:21:48;99466.63;;;28.38;51.90
45369;BME280;51342;55.250;37.668;2022-07-06T07:24:20;99460.34;;;28.42;52.71
45369;BME280;51342;55.250;37.668;2022-07-06T07:26:51;99459.31;;;28.49;51.27
45369;BME280;51342;55.250;37.668;2022-07-06T07:29:22;99457.59;;;28.45;50.57
45369;BME280;51342;55.250;37.668;2022-07-06T07:31:54;99454.81;;;28.51;51.52
45369;BME280;51342;55.250;37.668;2022-07-06T07:34:25;99449.38;;;28.59;53.52
45369;BME280;51342;55.250;37.668;2022-07-06T07:36:57;99452.69;;;28.70;51.53
45369;BME280;51342;55.250;37.668;2022-07-06T07:39:28;99453.31;;;28.82;51.42
45369;BME280;51342;55.250;37.668;2022-07-06T07:42:00;99454.13;;;28.85;51.62
45369;BME280;51342;55.250;37.668;2022-07-06T07:44:31;99448.69;;;28.91;51.26
45369;BME280;51342;55.250;37.668;2022-07-06T07:47:02;99447.78;;;28.94;50.12
45369;BME280;51342;55.250;37.668;2022-07-06T07:49:34;99448.78;;;28.88;51.19
45369;BME280;51342;55.250;37.668;2022-07-06T07:52:05;99445.09;;;28.92;49.95
45369;BME280;51342;55.250;37.668;2022-07-06T07:54:37;99450.34;;;28.98;50.20
45369;BME280;51342;55.250;37.668;2022-07-06T07:57:08;99445.81;;;29.02;49.82
45369;BME280;51342;55.250;37.668;2022-07-06T07:59:40;99443.06;;;29.07;51.85
45369;BME280;51342;55.250;37.668;2022-07-06T08:02:13;99446.50;;;29.12;49.45
45369;BME280;51342;55.250;37.668;2022-07-06T08:04:44;99449.22;;;29.09;49.91
45369;BME280;51342;55.250;37.668;2022-07-06T08:07:15;99458.88;;;29.14;50.79
45369;BME280;51342;55.250;37.668;2022-07-06T08:09:47;99452.50;;;29.21;50.10
45369;BME280;51342;55.250;37.668;2022-07-06T08:12:18;99446.97;;;29.30;49.31
45369;BME280;51342;55.250;37.668;2022-07-06T08:14:49;99449.81;;;29.23;48.10
45369;BME280;51342;55.250;37.668;2022-07-06T08:17:21;99453.41;;;29.20;48.38
45369;BME280;51342;55.250;37.668;2022-07-06T08:19:52;99445.47;;;29.19;49.60
45369;BME280;51342;55.250;37.668;2022-07-06T08:22:24;99442.75;;;29.22;49.39
45369;BME280;51342;55.250;37.668;2022-07-06T08:24:55;99436.25;;;29.34;49.00
45369;BME280;51342;55.250;37.668;2022-07-06T08:27:27;99440.41;;;29.45;50.21
45369;BME280;51342;55.250;37.668;2022-07-06T08:29:59;99435.00;;;29.48;48.67
45369;BME280;51342;55.250;37.668;2022-07-06T08:32:31;99444.19;;;29.35;48.23
45369;BME280;51342;55.250;37.668;2022-07-06T08:35:03;99440.94;;;29.22;49.30
45369;BME280;51342;55.250;37.668;2022-07-06T08:37:34;99437.31;;;29.25;49.79
45369;BME280;51342;55.250;37.668;2022-07-06T08:40:06;99440.56;;;29.38;49.50
45369;BME280;51342;55.250;37.668;2022-07-06T08:42:38;99434.88;;;29.54;49.52
45369;BME280;51342;55.250;37.668;2022-07-06T08:45:09;99436.41;;;29.65;48.19
45369;BME280;51342;55.250;37.668;2022-07-06T08:47:41;99433.06;;;29.56;48.37
45369;BME280;51342;55.250;37.668;2022-07-06T08:50:13;99434.78;;;29.59;47.19
45369;BME280;51342;55.250;37.668;2022-07-06T08:52:47;99433.69;;;29.66;48.00
45369;BME280;51342;55.250;37.668;2022-07-06T08:55:19;99431.53;;;29.82;48.99
45369;BME280;51342;55.250;37.668;2022-07-06T08:57:51;99424.84;;;30.00;48.39
45369;BME280;51342;55.250;37.668;2022-07-06T09:00:24;99423.78;;;30.07;46.55
45369;BME280;51342;55.250;37.668;2022-07-06T09:02:55;99420.31;;;30.03;44.32
45369;BME280;51342;55.250;37.668;2022-07-06T09:05:29;99426.63;;;30.01;47.67
45369;BME280;51342;55.250;37.668;2022-07-06T09:08:02;99424.06;;;29.96;45.91
45369;BME280;51342;55.250;37.668;2022-07-06T09:10:33;99420.81;;;29.83;43.21
45369;BME280;51342;55.250;37.668;2022-07-06T09:13:07;99425.44;;;29.77;46.54
45369;BME280;51342;55.250;37.668;2022-07-06T09:15:38;99422.78;;;29.77;46.44
45369;BME280;51342;55.250;37.668;2022-07-06T09:18:10;99426.56;;;29.68;43.79
45369;BME280;51342;55.250;37.668;2022-07-06T09:20:44;99424.25;;;29.53;48.07
45369;BME280;51342;55.250;37.668;2022-07-06T09:23:16;99416.31;;;29.50;46.10
45369;BME280;51342;55.250;37.668;2022-07-06T09:25:48;99425.34;;;29.43;47.19
45369;BME280;51342;55.250;37.668;2022-07-06T09:28:21;99415.72;;;29.37;49.94
45369;BME280;51342;55.250;37.668;2022-07-06T09:30:54;99419.97;;;29.46;49.92
45369;BME280;51342;55.250;37.668;2022-07-06T09:33:26;99409.91;;;29.59;49.36
45369;BME280;51342;55.250;37.668;2022-07-06T09:35:57;99404.09;;;29.77;44.55
45369;BME280;51342;55.250;37.668;2022-07-06T09:38:32;99401.25;;;29.85;44.86
45369;BME280;51342;55.250;37.668;2022-07-06T09:41:03;99403.59;;;29.97;46.91
45369;BME280;51342;55.250;37.668;2022-07-06T09:43:34;99405.06;;;30.08;44.15
45369;BME280;51342;55.250;37.668;2022-07-06T09:46:06;99404.75;;;30.21;45.48
45369;BME280;51342;55.250;37.668;2022-07-06T09:48:40;99397.28;;;30.35;48.41
45369;BME280;51342;55.250;37.668;2022-07-06T09:51:15;99399.19;;;30.30;46.48
45369;BME280;51342;55.250;37.668;2022-07-06T09:53:50;99399.59;;;30.15;46.46
45369;BME280;51342;55.250;37.668;2022-07-06T09:56:36;99382.53;;;29.86;46.52
45369;BME280;51342;55.250;37.668;2022-07-06T09:59:13;99386.47;;;29.73;47.77
45369;BME280;51342;55.250;37.668;2022-07-06T10:01:44;99396.69;;;29.54;48.36
45369;BME280;51342;55.250;37.668;2022-07-06T10:04:16;99391.50;;;29.46;48.60
45369;BME280;51342;55.250;37.668;2022-07-06T10:06:49;99387.53;;;29.64;50.93
45369;BME280;51342;55.250;37.668;2022-07-06T10:09:23;99382.78;;;29.77;48.05
45369;BME280;51342;55.250;37.668;2022-07-06T10:11:58;99390.38;;;29.92;46.49
45369;BME280;51342;55.250;37.668;2022-07-06T10:14:32;99380.53;;;29.94;44.89
45369;BME280;51342;55.250;37.668;2022-07-06T10:17:05;99385.03;;;29.92;45.38
45369;BME280;51342;55.250;37.668;2022-07-06T10:19:36;99378.03;;;29.88;45.02
45369;BME280;51342;55.250;37.668;2022-07-06T10:22:09;99376.56;;;29.76;46.00
45369;BME280;51342;55.250;37.668;2022-07-06T10:24:42;99379.66;;;29.60;46.43
45369;BME280;51342;55.250;37.668;2022-07-06T10:27:14;99379.28;;;29.38;47.11
45369;BME280;51342;55.250;37.668;2022-07-06T10:29:46;99382.34;;;29.22;47.87
45369;BME280;51342;55.250;37.668;2022-07-06T10:32:19;99381.84;;;29.05;49.05
45369;BME280;51342;55.250;37.668;2022-07-06T10:34:52;99375.09;;;28.87;49.25
45369;BME280;51342;55.250;37.668;2022-07-06T10:37:26;99380.72;;;28.73;48.91
45369;BME280;51342;55.250;37.668;2022-07-06T10:39:57;99379.34;;;28.56;48.54
45369;BME280;51342;55.250;37.668;2022-07-06T10:42:49;99376.16;;;28.38;48.58
45369;BME280;51342;55.250;37.668;2022-07-06T10:48:17;99368.38;;;28.26;46.29
45369;BME280;51342;55.250;37.668;2022-07-06T10:53:30;99381.03;;;28.58;47.24
45369;BME280;51342;55.250;37.668;2022-07-06T10:56:09;99371.78;;;28.76;46.48
45369;BME280;51342;55.250;37.668;2022-07-06T10:58:48;99372.38;;;28.90;44.50
45369;BME280;51342;55.250;37.668;2022-07-06T11:01:22;99374.59;;;29.12;45.66
45369;BME280;51342;55.250;37.668;2022-07-06T11:06:33;99356.78;;;29.49;45.92
45369;BME280;51342;55.250;37.668;2022-07-06T11:09:05;99367.03;;;29.68;44.87
45369;BME280;51342;55.250;37.668;2022-07-06T11:11:39;99368.50;;;29.78;45.67
45369;BME280;51342;55.250;37.668;2022-07-06T11:14:17;99368.38;;;29.84;45.60
45369;BME280;51342;55.250;37.668;2022-07-06T11:19:22;99357.25;;;29.67;47.25
45369;BME280;51342;55.250;37.668;2022-07-06T11:21:56;99351.44;;;29.49;47.86
45369;BME280;51342;55.250;37.668;2022-07-06T11:24:30;99353.50;;;29.38;47.84
45369;BME280;51342;55.250;37.668;2022-07-06T11:27:02;99355.19;;;29.42;47.75
45369;BME280;51342;55.250;37.668;2022-07-06T11:29:34;99360.22;;;29.56;48.01
45369;BME280;51342;55.250;37.668;2022-07-06T11:32:09;99364.38;;;29.68;47.91
45369;BME280;51342;55.250;37.668;2022-07-06T11:34:44;99367.78;;;29.73;47.59
45369;BME280;51342;55.250;37.668;2022-07-06T11:37:15;99374.09;;;29.69;47.02
45369;BME280;51342;55.250;37.668;2022-07-06T11:39:48;99368.28;;;29.51;47.04
45369;BME280;51342;55.250;37.668;2022-07-06T11:42:20;99380.84;;;29.46;47.30
45369;BME280;51342;55.250;37.668;2022-07-06T11:44:53;99379.38;;;29.35;47.87
45369;BME280;51342;55.250;37.668;2022-07-06T11:47:30;99377.97;;;29.18;48.66
45369;BME280;51342;55.250;37.668;2022-07-06T11:50:02;99378.19;;;29.09;49.57
45369;BME280;51342;55.250;37.668;2022-07-06T11:52:33;99389.88;;;29.02;47.88
45369;BME280;51342;55.250;37.668;2022-07-06T11:55:05;99396.28;;;28.95;49.13
45369;BME280;51342;55.250;37.668;2022-07-06T11:57:40;99393.66;;;28.90;48.51
45369;BME280;51342;55.250;37.668;2022-07-06T12:00:12;99384.75;;;28.91;48.32
45369;BME280;51342;55.250;37.668;2022-07-06T12:02:59;99368.88;;;28.88;48.12
45369;BME280;51342;55.250;37.668;2022-07-06T12:05:31;99366.13;;;28.93;47.28
45369;BME280;51342;55.250;37.668;2022-07-06T12:08:06;99368.78;;;28.94;47.34
45369;BME280;51342;55.250;37.668;2022-07-06T12:10:37;99366.03;;;28.97;47.03
45369;BME280;51342;55.250;37.668;2022-07-06T12:13:09;99362.47;;;28.97;46.56
45369;BME280;51342;55.250;37.668;2022-07-06T12:15:40;99355.38;;;28.97;47.01
45369;BME280;51342;55.250;37.668;2022-07-06T12:18:12;99361.50;;;29.01;46.43
45369;BME280;51342;55.250;37.668;2022-07-06T12:20:43;99358.75;;;29.04;45.72
45369;BME280;51342;55.250;37.668;2022-07-06T12:23:15;99362.28;;;29.06;44.56
45369;BME280;51342;55.250;37.668;2022-07-06T12:25:47;99365.88;;;29.05;47.47
45369;BME280;51342;55.250;37.668;2022-07-06T12:28:23;99365.19;;;28.95;48.80
45369;BME280;51342;55.250;37.668;2022-07-06T12:30:54;99360.81;;;28.91;49.13
45369;BME280;51342;55.250;37.668;2022-07-06T12:33:26;99359.09;;;28.89;49.68
45369;BME280;51342;55.250;37.668;2022-07-06T12:36:14;99365.34;;;28.86;50.46
45369;BME280;51342;55.250;37.668;2022-07-06T12:38:47;99363.75;;;28.79;49.26
45369;BME280;51342;55.250;37.668;2022-07-06T12:41:27;99361.25;;;28.70;51.32
45369;BME280;51342;55.250;37.668;2022-07-06T12:44:02;99364.94;;;28.66;51.21
45369;BME280;51342;55.250;37.668;2022-07-06T12:46:36;99377.41;;;28.62;52.06
45369;BME280;51342;55.250;37.668;2022-07-06T12:49:16;99376.72;;;28.52;52.20
45369;BME280;51342;55.250;37.668;2022-07-06T12:52:07;99375.22;;;28.39;53.30
45369;BME280;51342;55.250;37.668;2022-07-06T12:54:47;99380.69;;;28.33;53.91
45369;BME280;51342;55.250;37.668;2022-07-06T12:57:23;99370.16;;;28.24;53.92
45369;BME280;51342;55.250;37.668;2022-07-06T12:59:57;99370.34;;;28.16;53.74
45369;BME280;51342;55.250;37.668;2022-07-06T13:02:33;99360.69;;;28.11;54.63
45369;BME280;51342;55.250;37.668;2022-07-06T13:05:10;99364.13;;;28.16;53.42
45369;BME280;51342;55.250;37.668;2022-07-06T13:07:47;99356.91;;;28.22;52.75
45369;BME280;51342;55.250;37.668;2022-07-06T13:10:19;99357.56;;;28.35;52.15
45369;BME280;51342;55.250;37.668;2022-07-06T13:12:51;99363.53;;;28.48;51.07
45369;BME280;51342;55.250;37.668;2022-07-06T13:15:23;99370.31;;;28.63;51.31
45369;BME280;51342;55.250;37.668;2022-07-06T13:17:55;99365.63;;;28.74;50.18
45369;BME280;51342;55.250;37.668;2022-07-06T13:20:26;99369.00;;;28.82;49.63
45369;BME280;51342;55.250;37.668;2022-07-06T13:22:59;99350.25;;;28.87;49.70
45369;BME280;51342;55.250;37.668;2022-07-06T13:25:30;99355.56;;;28.88;49.44
45369;BME280;51342;55.250;37.668;2022-07-06T13:28:01;99349.16;;;28.97;49.71
45369;BME280;51342;55.250;37.668;2022-07-06T13:30:33;99348.16;;;29.02;49.70
45369;BME280;51342;55.250;37.668;2022-07-06T13:33:04;99346.31;;;29.06;48.08